Kythira, Greece
Current Conditions -  °F | °C
As of 11:20 AM on Sunday 26 Oct 2014 (Local Time) from LGKL Reporting Station
Scattered Clouds Scattered Clouds  
Wind Chill: 64°   Ceiling: Unl
Heat Index: 64°   Visibility: 6mi
Dew Point: 54°   Wind: 0mph
Humidity: 68%   Direction: NA
Pressure: 30"   Gusts: NA
Location:  36.26°N, 23°E
Report Text: LGKL 260820Z 00000KT 9999 FEW020 SCT080 18/12 Q1016
Loading
Personal Weather Stations






























Interactive Weather Map
Tropical Storm Tracking
New forecast layout! Learn more

10-Day Weather Forecast

Advertisements
Track Severe Weather on mobile